Latest Coastal Weather Observations for Geraldton Airport

IDW60701

Issued at 2:13 am WST Thursday 21 September 2017 (issued every 10 minutes, with the page automatically refreshed every 10 minutes)

About coastal observations | Map of coastal stations | Coastal observations for WA | Marine services | Other Formats
Station Details ID: 008315 Name: GERALDTON AIRPORT Lat: -28.80 Lon: 114.70 Height: 29.7 m
Data from the previous 72 hours. | See also: Recent months at Geraldton Airport
Date/Time
WST
Temp
°C
Wind Pressure Rain since
9am
mm
Weather Cloud Vis
km
Sea
Height
m
Swell
Dir  Spd
kts
Gust
kts
hPa Trend Height
m
Period
s
Dir
21/02:00am 14.3 NNE 7 8 1012.7 - 0.0 - Clear 10 - - - -
21/01:30am 15.1 N 5 6 1012.9 - 0.0 - Partly cloudy 10 - - - -
21/01:00am 15.6 NNE 4 5 1013.3 - 0.0 - Cloudy 10 - - - -
21/12:30am 15.2 NNE 6 7 1013.5 - 0.0 - Partly cloudy 10 - - - -
21/12:00am 15.2 NNE 5 6 1014.0 - 0.0 - Partly cloudy 10 - - - -
 
Date/Time
WST
Temp
°C
Wind Pressure Rain since
9am
mm
Weather Cloud Vis
km
Sea
Height
m
Swell
Dir  Spd
kts
Gust
kts
hPa Trend Height
m
Period
s
Dir
20/11:45pm 15.0 NNE 4 6 1014.2 - 0.0 - Partly cloudy 10 - - - -
20/11:30pm 15.4 N 3 4 1014.3 - 0.0 - Partly cloudy 10 - - - -
20/11:29pm 15.4 N 3 4 1014.3 - 0.0 - Partly cloudy 10 - - - -
20/11:00pm 15.3 NNE 6 7 1014.6 - 0.0 - Partly cloudy 10 - - - -
20/10:30pm 15.5 NNE 6 7 1015.1 - 0.0 - - 10 - - - -
20/10:00pm 15.5 NNE 6 7 1015.3 - 0.0 - - 10 - - - -
20/09:30pm 14.9 NNE 6 6 1015.4 - 0.0 - - 10 - - - -
20/09:00pm 15.1 NNE 5 6 1015.5 - 0.0 - - 10 - - - -
20/08:30pm 15.4 NNE 4 5 1015.7 - 0.0 - - 10 - - - -
20/08:00pm 16.7 N 4 5 1015.7 - 0.0 - Partly cloudy 10 - - - -
20/07:30pm 16.4 NNW 4 4 1015.6 - 0.0 - Partly cloudy 10 - - - -
20/07:00pm 17.4 NW 4 6 1015.4 - 0.0 - - 10 - - - -
20/06:30pm 18.6 W 6 7 1015.4 - 0.0 - - 10 - - - -
20/06:00pm 19.9 W 7 10 1015.3 - 0.0 - - 10 - - - -
20/05:30pm 20.8 WSW 10 13 1015.1 - 0.0 - - 10 - - - -
20/05:00pm 21.6 WNW 8 11 1015.0 - 0.0 - - 10 - - - -
20/04:30pm 22.5 WNW 10 14 1015.2 - 0.0 - Partly cloudy 10 - - - -
20/04:00pm 22.4 WNW 11 14 1015.3 - 0.0 - Partly cloudy 10 - - - -
20/03:30pm 22.5 NW 12 16 1015.5 - 0.0 - Partly cloudy 10 - - - -
20/03:00pm 22.5 WNW 12 15 1015.7 - 0.0 - Partly cloudy 10 - - - -
20/02:30pm 23.2 WNW 11 15 1015.8 - 0.0 - Partly cloudy 10 - - - -
20/02:00pm 23.0 WNW 11 15 1016.0 - 0.0 - Partly cloudy 10 - - - -
20/01:30pm 23.0 NW 11 16 1016.1 - 0.0 - Partly cloudy 10 - - - -
20/01:00pm 23.9 NW 9 15 1016.3 - 0.0 - Partly cloudy 10 - - - -
20/12:30pm 22.6 NW 10 15 1016.6 - 0.0 - Partly cloudy 10 - - - -
20/12:00pm 23.7 WNW 10 15 1016.7 - 0.0 - Cloudy 10 - - - -
20/11:30am 23.3 WNW 10 16 1017.0 - 0.0 - Partly cloudy 10 - - - -
20/11:00am 22.5 W 10 15 1017.3 - 0.0 - Partly cloudy 10 - - - -
20/10:30am 22.5 WNW 9 13 1017.5 - 0.0 - Partly cloudy 10 - - - -
20/10:00am 21.1 W 10 16 1017.6 - 0.0 - Partly cloudy 10 - - - -
20/09:30am 21.3 WNW 9 12 1017.6 - 0.0 - Partly cloudy 10 - - - -
20/09:00am 21.1 W 9 12 1017.6 - 0.2 - Partly cloudy 10 - - - -
20/08:30am 20.3 WNW 8 10 1017.5 - 0.2 - Partly cloudy 10 - - - -
20/08:00am 19.6 NW 7 11 1017.3 - 0.2 - Mostly clear 10 - - - -
20/07:30am 18.6 NW 4 6 1017.0 - 0.2 - Mostly clear 10 - - - -
20/07:00am 16.8 NNW 5 6 1017.0 - 0.2 - Mostly clear 10 - - - -
20/06:30am 16.6 NW 6 6 1016.7 - 0.2 - Partly cloudy 10 - - - -
20/06:00am 17.4 W 5 7 1016.8 - 0.2 - Cloudy 10 - - - -
20/05:30am 16.8 W 5 7 1016.6 - 0.2 - Partly cloudy 10 - - - -
20/05:00am 17.6 W 7 10 1016.5 - 0.2 - Partly cloudy 10 - - - -
20/04:30am 16.7 NW 4 6 1016.4 - 0.2 - Partly cloudy 10 - - - -
20/04:00am 16.2 WNW 3 4 1016.1 - 0.2 - Cloudy 10 - - - -
20/03:30am 15.3 WNW 5 5 1016.2 - 0.2 - Partly cloudy 10 - - - -
20/03:00am 14.4 WNW 5 6 1016.2 - 0.2 Recent precip. - 10 - - - -
20/02:30am 15.5 WNW 5 6 1016.2 - 0.2 - Partly cloudy 10 - - - -
20/02:00am 15.9 WNW 6 7 1016.4 - 0.0 - Partly cloudy 10 - - - -
20/01:30am 17.1 WSW 6 8 1016.7 - 0.0 - Partly cloudy 10 - - - -
20/01:00am 17.2 W 6 6 1016.9 - 0.0 - Partly cloudy 10 - - - -
20/12:30am 17.4 WSW 5 6 1017.2 - 0.0 - Partly cloudy 10 - - - -
20/12:00am 16.6 CALM 0 0 1017.1 - 0.0 - Cloudy 10 - - - -
 
Date/Time
WST
Temp
°C
Wind Pressure Rain since
9am
mm
Weather Cloud Vis
km
Sea
Height
m
Swell
Dir  Spd
kts
Gust
kts
hPa Trend Height
m
Period
s
Dir
19/11:30pm 15.9 SW 3 4 1017.2 - 0.0 - Partly cloudy 10 - - - -
19/11:00pm 15.8 WNW 3 5 1017.3 - 0.0 - Partly cloudy 10 - - - -
19/10:49pm 15.6 NW 2 3 1017.3 - 0.0 - Partly cloudy 10 - - - -
19/10:31pm 15.5 NNE 3 4 1017.3 - 0.0 - Partly cloudy 10 - - - -
19/10:30pm 15.5 NNE 3 4 1017.3 - 0.0 - Partly cloudy 10 - - - -
19/10:00pm 14.0 N 4 5 1017.4 - 0.0 - Partly cloudy 10 - - - -
19/09:30pm 14.4 NW 3 4 1017.6 - 0.0 - Partly cloudy 10 - - - -
19/09:00pm 15.6 W 4 5 1017.6 - 0.0 - Partly cloudy 10 - - - -
19/08:30pm 16.4 SW 4 5 1017.8 - 0.0 - Partly cloudy 10 - - - -
19/08:00pm 16.4 SW 6 7 1017.7 - 0.0 - Partly cloudy 10 - - - -
19/07:30pm 17.0 SW 6 7 1017.4 - 0.0 - Partly cloudy 10 - - - -
19/07:00pm 17.2 SW 6 8 1017.0 - 0.0 - Partly cloudy 10 - - - -
19/06:30pm 17.8 SW 6 8 1016.8 - 0.0 - Partly cloudy 10 - - - -
19/06:00pm 18.8 SW 7 10 1016.6 - 0.0 - Partly cloudy 10 - - - -
19/05:30pm 19.3 WSW 8 11 1016.5 - 0.0 - Partly cloudy 10 - - - -
19/05:00pm 20.8 SW 9 11 1016.3 - 0.0 - Partly cloudy 10 - - - -
19/04:30pm 21.5 WSW 9 12 1016.2 - 0.0 - - 10 - - - -
19/04:00pm 21.4 SW 10 13 1016.2 - 0.0 - - 10 - - - -
19/03:30pm 22.9 WSW 9 15 1016.2 - 0.0 - - 10 - - - -
19/03:00pm 23.2 WSW 7 12 1016.2 - 0.0 - - 10 - - - -
19/02:30pm 22.8 WSW 8 11 1016.3 - 0.0 - Mostly clear 10 - - - -
19/02:00pm 22.6 SW 9 15 1016.6 - 0.0 - Mostly clear 10 - - - -
19/01:30pm 23.1 SW 10 15 1016.7 - 0.0 - Mostly clear 10 - - - -
19/01:00pm 23.3 SW 8 13 1016.7 - 0.0 - Mostly clear 10 - - - -
19/12:30pm 22.7 WSW 8 12 1017.1 - 0.0 - Mostly clear 10 - - - -
19/12:00pm 22.9 SW 8 13 1017.3 - 0.0 - Mostly clear 10 - - - -
19/11:30am 22.9 WSW 9 13 1017.6 - 0.0 - Mostly clear 10 - - - -
19/11:00am 22.2 SSW 8 12 1017.8 - 0.0 - Partly cloudy 10 - - - -
19/10:30am 22.2 SW 8 11 1018.0 - 0.0 - Partly cloudy 10 - - - -
19/10:00am 22.3 SW 8 12 1018.1 - 0.0 - Partly cloudy 10 - - - -
19/09:30am 21.3 SSW 5 8 1018.1 - 0.0 - Partly cloudy 10 - - - -
19/09:00am 19.8 SSW 5 8 1018.2 - 0.2 - Mostly clear 10 - - - -
19/08:30am 18.7 W 3 6 1018.3 - 0.2 - Partly cloudy 10 - - - -
19/08:00am 17.0 N 3 5 1018.1 - 0.2 - Mostly clear 10 - - - -
19/07:30am 15.2 N 3 4 1017.9 - 0.2 - Partly cloudy 5 - - - -
19/07:00am 14.1 NNE 5 6 1017.5 - 0.2 - Mostly clear 5 - - - -
19/06:30am 13.3 NNE 6 7 1017.5 - 0.2 - Partly cloudy 2 - - - -
19/06:00am 13.8 NNE 4 5 1017.5 - 0.2 - Cloudy 6 - - - -
19/05:30am 13.8 NE 5 5 1017.1 - 0.2 - Cloudy 0.6 - - - -
19/05:00am 13.4 W 2 4 1016.9 - 0.2 - Cloudy 0.6 - - - -
19/04:30am 13.0 NNE 4 6 1016.2 - 0.2 - Cloudy 0.1 - - - -
19/04:00am 13.2 NNE 6 8 1016.0 - 0.2 - Cloudy 0.4 - - - -
19/03:30am 13.1 NNE 7 8 1016.3 - 0.2 - Cloudy 0.2 - - - -
19/03:00am 12.3 NE 3 6 1017.0 - 0.2 Rain Cloudy 0.1 - - - -
19/02:30am 12.2 CALM 0 0 1017.4 - 0.0 - Cloudy 0.1 - - - -
19/02:00am 12.1 CALM 0 1 1017.4 - 0.0 - Cloudy 0.1 - - - -
19/01:40am 11.8 SW 6 8 1017.7 - 0.0 - Partly cloudy 2 - - - -
19/01:32am 11.3 SSW 5 11 1017.6 - 0.0 - Partly cloudy 5 - - - -
19/01:30am 11.0 ESE 4 11 1017.6 - 0.0 - Partly cloudy 9 - - - -
19/01:13am 12.2 NE 7 8 1017.3 - 0.0 - - 10 - - - -
19/01:00am 12.3 NNE 7 8 1017.5 - 0.0 - - 6 - - - -
19/12:57am 12.4 NNE 7 8 1017.5 - 0.0 - - 6 - - - -
19/12:44am 12.8 NNE 8 8 1017.8 - 0.0 - - 10 - - - -
19/12:30am 11.7 NNE 6 8 1018.1 - 0.0 - - 7 - - - -
19/12:00am 12.1 N 6 6 1018.7 - 0.0 - - 0.4 - - - -
 
Date/Time
WST
Temp
°C
Wind Pressure Rain since
9am
mm
Weather Cloud Vis
km
Sea
Height
m
Swell
Dir  Spd
kts
Gust
kts
hPa Trend Height
m
Period
s
Dir
18/11:30pm 12.4 NW 3 4 1018.9 - 0.0 - - 0.3 - - - -
18/11:06pm 12.9 CALM 0 0 1019.2 - 0.0 - - 4 - - - -
18/11:00pm 13.2 CALM 0 0 1019.2 - 0.0 - - 9 - - - -
18/10:50pm 13.7 NW 1 4 1019.4 - 0.0 - - 9 - - - -
18/10:39pm 13.7 NNW 4 5 1019.5 - 0.0 - - 6 - - - -
18/10:30pm 13.6 N 4 5 1019.5 - 0.0 - - 7 - - - -
18/10:11pm 12.7 NE 6 7 1019.6 - 0.0 - - 9 - - - -
18/10:00pm 13.0 ESE 3 4 1019.8 - 0.0 - - 2 - - - -
18/09:37pm 15.1 S 4 4 1020.0 - 0.0 - - 4 - - - -
18/09:30pm 16.3 SSW 4 5 1020.2 - 0.0 - - 10 - - - -
18/09:00pm 15.9 S 6 7 1020.2 - 0.0 - - 10 - - - -
18/08:30pm 16.3 SSW 7 8 1020.2 - 0.0 - - 10 - - - -
18/08:00pm 16.8 SSW 6 7 1019.8 - 0.0 - - 10 - - - -
18/07:30pm 17.3 SSW 6 7 1019.4 - 0.0 - - 10 - - - -
18/07:00pm 18.1 SW 6 7 1019.3 - 0.0 - - 10 - - - -
18/06:30pm 19.1 SW 7 9 1018.9 - 0.0 - - 10 - - - -
18/06:00pm 20.7 SSW 9 12 1018.5 - 0.0 - - 10 - - - -
18/05:30pm 24.0 SSW 9 16 1018.1 - 0.0 - - 10 - - - -
18/05:00pm 25.8 S 10 13 1017.5 - 0.0 - - 10 - - - -
18/04:30pm 26.7 S 9 11 1017.6 - 0.0 - - 10 - - - -
18/04:00pm 27.4 S 9 11 1017.5 - 0.0 - - 10 - - - -
18/03:30pm 28.4 SW 9 12 1017.5 - 0.0 - - 10 - - - -
18/03:00pm 29.8 SW 10 13 1017.6 - 0.0 - - 10 - - - -
18/02:30pm 30.0 SW 8 9 1017.6 - 0.0 - - 10 - - - -
18/02:00pm 29.4 SW 10 13 1018.2 - 0.0 - - 10 - - - -
18/01:30pm 31.3 NNW 7 13 1018.4 - 0.0 - - 10 - - - -
18/01:00pm 32.1 ENE 5 9 1019.0 - 0.0 - - 10 - - - -
18/12:30pm 30.6 ENE 5 8 1019.7 - 0.0 - - 10 - - - -
18/12:00pm 29.5 E 3 9 1020.3 - 0.0 - - 10 - - - -
18/11:30am 27.8 E 4 7 1020.8 - 0.0 - - 10 - - - -
18/11:00am 26.8 ENE 5 10 1021.4 - 0.0 - - 10 - - - -
18/10:30am 25.1 E 8 10 1021.9 - 0.0 - - 10 - - - -
18/10:00am 23.5 ENE 5 8 1022.5 - 0.0 - - 10 - - - -
18/09:30am 21.2 ENE 4 6 1022.9 - 0.0 - - 10 - - - -
18/09:00am 20.1 ENE 7 10 1022.9 - 0.0 - - 10 - - - -
18/08:30am 17.6 E 6 9 1023.0 - 0.0 - - 10 - - - -
18/08:00am 14.8 E 6 8 1023.0 - 0.0 - - 10 - - - -
18/07:30am 12.5 NE 6 9 1022.9 - 0.0 - - 10 - - - -
18/07:00am 10.0 CALM 0 1 1022.7 - 0.0 - - 10 - - - -
18/06:30am 9.2 NW 1 6 1022.5 - 0.0 - - 10 - - - -
18/06:00am 9.7 S 1 4 1022.3 - 0.0 - - 10 - - - -
18/05:30am 9.5 ESE 3 4 1022.2 - 0.0 - - 10 - - - -
18/05:00am 9.3 SE 5 6 1022.2 - 0.0 - - 10 - - - -
18/04:30am 10.8 ESE 5 7 1022.3 - 0.0 - - 10 - - - -
18/04:00am 8.7 ESE 5 7 1022.3 - 0.0 - - 10 - - - -
18/03:44am 8.3 ESE 7 8 1022.3 - 0.0 - - 10 - - - -
18/03:30am 9.2 ESE 6 7 1022.3 - 0.0 - - 2 - - - -
18/03:00am 8.2 ENE 6 7 1022.5 - 0.0 - - 2 - - - -
18/02:30am 9.2 ENE 3 4 1022.7 - 0.0 - - 0.8 - - - -

Other Formats:

Comma delimited format used in spreadsheet applications
http://www.bom.gov.au/fwo/IDW60701/IDW60701.94403.axf

JavaScript Object Notation format (JSON) in row-major order
http://www.bom.gov.au/fwo/IDW60701/IDW60701.94403.json